Time;durP1;ratioP1;P1;durP2;ratioP2;P2;SDS_P1;SDS_P2;PMS_P1;PMS_P2;Temp;Humidity;BMP_temperature;BMP_pressure;BME280_temperature;BME280_humidity;BME280_pressure;Samples;Min_cycle;Max_cycle;Signal;HPM_P1;HPM_P2
2022/04/21 00:00:59;;;;;;;8.32;4.70;;;;;;;1.98;100.00;96905.69;4985287;28;20060;-62
2022/04/21 00:03:25;;;;;;;8.57;4.72;;;;;;;2.13;100.00;96894.31;4985159;28;20058;-60
2022/04/21 00:05:52;;;;;;;8.93;4.15;;;;;;;2.10;100.00;96893.03;4984645;28;20084;-65
2022/04/21 00:08:20;;;;;;;13.82;6.75;;;;;;;2.10;100.00;96897.69;4985017;28;20054;-60
2022/04/21 00:10:47;;;;;;;14.40;6.85;;;;;;;2.09;100.00;96909.72;4984799;28;20456;-65
2022/04/21 00:13:13;;;;;;;11.75;6.47;;;;;;;2.11;100.00;96907.47;4984674;28;20058;-62
2022/04/21 00:15:40;;;;;;;15.27;6.38;;;;;;;1.27;100.00;96784.97;4999344;28;20073;-60
2022/04/21 00:18:07;;;;;;;26.30;9.90;;;;;;;1.94;100.00;96904.72;4984590;28;20085;-65
2022/04/21 00:20:34;;;;;;;24.13;9.93;;;;;;;1.96;100.00;96905.22;4999919;28;20110;-60
2022/04/21 00:25:46;;;;;;;15.93;7.18;;;;;;;1.79;100.00;96916.13;4984556;28;20054;-65
2022/04/21 00:28:13;;;;;;;19.80;8.15;;;;;;;1.77;100.00;96930.06;4999436;28;20054;-65
2022/04/21 00:30:40;;;;;;;23.88;10.45;;;;;;;1.72;100.00;96922.03;4984639;28;20482;-60
2022/04/21 00:33:06;;;;;;;14.32;6.88;;;;;;;1.28;100.00;96857.50;4999814;28;20225;-64
2022/04/21 00:35:33;;;;;;;13.75;6.63;;;;;;;1.81;100.00;96941.16;4984454;28;20065;-61
2022/04/21 00:38:00;;;;;;;20.17;7.75;;;;;;;1.42;100.00;96939.25;4997668;28;20532;-64
2022/04/21 00:40:29;;;;;;;17.02;6.97;;;;;;;1.58;100.00;96933.03;5002952;28;20057;-64
2022/04/21 00:42:57;;;;;;;12.73;7.72;;;;;;;1.72;100.00;96943.06;5004354;28;20057;-60
2022/04/21 00:45:25;;;;;;;9.75;5.68;;;;;;;1.17;100.00;96864.34;5004730;28;20050;-60
2022/04/21 00:47:53;;;;;;;8.85;4.85;;;;;;;1.58;100.00;96947.81;5004401;28;20131;-59
2022/04/21 00:50:33;;;;;;;10.65;5.13;;;;;;;1.64;100.00;96943.84;5002519;28;20050;-60
2022/04/21 00:53:01;;;;;;;9.35;5.97;;;;;;;1.40;100.00;96903.28;5003945;28;20759;-59
2022/04/21 00:55:30;;;;;;;8.57;5.10;;;;;;;1.77;100.00;96951.13;5004146;28;20077;-65
2022/04/21 00:57:58;;;;;;;12.80;6.10;;;;;;;1.77;100.00;96962.03;5004269;28;20579;-60
2022/04/21 01:00:25;;;;;;;13.65;6.57;;;;;;;1.82;100.00;96953.69;5002805;28;20064;-65
2022/04/21 01:02:54;;;;;;;14.20;7.45;;;;;;;1.24;100.00;96861.16;5005615;28;20149;-60
2022/04/21 01:05:29;;;;;;;14.90;7.38;;;;;;;1.85;100.00;96958.53;5007451;28;20054;-60
2022/04/21 01:08:06;;;;;;;10.65;5.85;;;;;;;1.73;100.00;96933.75;5007610;28;20057;-59
2022/04/21 01:10:35;;;;;;;8.23;5.18;;;;;;;1.40;100.00;96915.00;5007658;28;20061;-65
2022/04/21 01:13:06;;;;;;;7.13;5.05;;;;;;;1.75;100.00;96986.91;5007640;28;20076;-65
2022/04/21 01:15:34;;;;;;;9.30;4.68;;;;;;;1.84;100.00;96968.63;5007260;28;20092;-60
2022/04/21 01:18:01;;;;;;;8.15;4.78;;;;;;;1.76;100.00;96976.78;5005936;28;20061;-64
2022/04/21 01:20:27;;;;;;;10.52;5.72;;;;;;;1.76;100.00;96976.78;5007418;28;20053;-60
2022/04/21 01:22:54;;;;;;;13.75;6.75;;;;;;;1.75;100.00;96954.16;5007466;28;20475;-59
2022/04/21 01:25:22;;;;;;;10.20;6.47;;;;;;;1.47;100.00;96915.34;5007065;28;20053;-65
2022/04/21 01:27:58;;;;;;;9.20;5.40;;;;;;;1.58;100.00;96927.59;5007339;28;20068;-60
2022/04/21 01:30:25;;;;;;;45.58;16.58;;;;;;;1.23;100.00;96843.22;5007029;28;20050;-60
2022/04/21 01:32:52;;;;;;;24.45;10.98;;;;;;;1.95;100.00;96969.13;5007124;28;20444;-60
2022/04/21 01:35:18;;;;;;;15.35;7.82;;;;;;;1.87;100.00;96975.38;5007331;28;20050;-63
2022/04/21 01:43:16;;;;;;;14.25;6.45;;;;;;;1.72;100.00;96953.97;4987369;28;20054;-60
2022/04/21 01:45:44;;;;;;;12.02;5.50;;;;;;;1.77;100.00;96983.88;5002086;28;20464;-64
2022/04/21 01:48:11;;;;;;;10.13;4.93;;;;;;;1.79;100.00;96998.81;4987493;28;20148;-65
2022/04/21 01:50:38;;;;;;;10.82;6.47;;;;;;;1.74;100.00;96979.81;4987236;28;20046;-60
2022/04/21 01:53:05;;;;;;;9.50;4.57;;;;;;;1.23;100.00;96909.47;4987147;28;20057;-60
2022/04/21 01:55:31;;;;;;;33.80;11.75;;;;;;;0.52;100.00;96838.03;4987226;28;20061;-64
2022/04/21 01:57:58;;;;;;;17.67;6.78;;;;;;;1.24;100.00;96968.38;4987179;28;20108;-65
2022/04/21 02:00:25;;;;;;;15.50;6.72;;;;;;;1.18;100.00;96949.72;5001993;28;20054;-59
2022/04/21 02:02:52;;;;;;;13.98;7.18;;;;;;;1.37;100.00;96964.75;4986752;28;20234;-59
2022/04/21 02:05:19;;;;;;;13.20;6.68;;;;;;;1.40;100.00;96968.78;4986949;28;20550;-65
2022/04/21 02:07:46;;;;;;;9.07;4.80;;;;;;;1.52;100.00;96972.53;4987491;28;20050;-59
2022/04/21 02:10:14;;;;;;;11.32;6.20;;;;;;;1.55;100.00;96974.63;4986721;28;20054;-65
2022/04/21 02:12:41;;;;;;;10.15;5.22;;;;;;;1.27;100.00;96935.00;4986061;28;20054;-63
2022/04/21 02:15:09;;;;;;;10.88;6.13;;;;;;;1.51;100.00;96965.47;4985236;28;20512;-64
2022/04/21 02:17:36;;;;;;;18.95;8.88;;;;;;;0.23;100.00;96751.34;4986806;28;20058;-61
2022/04/21 02:20:08;;;;;;;19.70;9.77;;;;;;;1.51;100.00;96970.09;4986836;28;20050;-60
2022/04/21 02:22:37;;;;;;;13.82;8.18;;;;;;;1.62;100.00;96976.09;4986642;28;20066;-65
2022/04/21 02:25:12;;;;;;;16.27;7.47;;;;;;;0.64;100.00;96822.72;4986470;28;20058;-65
2022/04/21 02:27:40;;;;;;;15.60;6.85;;;;;;;1.61;100.00;96991.69;4986810;28;20141;-61
2022/04/21 02:30:09;;;;;;;15.43;8.00;;;;;;;1.53;100.00;96963.19;4986526;28;20513;-59
2022/04/21 02:32:35;;;;;;;14.18;7.38;;;;;;;1.51;100.00;96962.72;4987065;28;20073;-63
2022/04/21 02:35:03;;;;;;;15.65;8.10;;;;;;;1.58;100.00;96960.34;4986493;28;20054;-61
2022/04/21 02:37:41;;;;;;;18.38;8.07;;;;;;;0.98;100.00;96861.06;4993737;28;20058;-61
2022/04/21 02:40:09;;;;;;;16.95;8.27;;;;;;;1.56;100.00;96962.56;5005758;28;20532;-60
2022/04/21 02:42:40;;;;;;;17.70;8.65;;;;;;;1.32;100.00;96962.16;5006170;28;20057;-61
2022/04/21 02:45:08;;;;;;;17.83;7.22;;;;;;;1.26;100.00;96952.50;5006381;28;20544;-59
2022/04/21 02:47:36;;;;;;;18.40;7.40;;;;;;;1.27;100.00;96948.66;5006323;28;20061;-64
2022/04/21 02:50:05;;;;;;;22.52;11.38;;;;;;;1.37;100.00;96953.84;5005551;28;20057;-64
2022/04/21 02:52:37;;;;;;;28.38;12.20;;;;;;;1.41;100.00;96946.63;5006006;28;20065;-60
2022/04/21 02:57:50;;;;;;;30.13;13.68;;;;;;;1.33;100.00;96947.38;5006213;28;20050;-59
2022/04/21 03:00:17;;;;;;;61.65;23.02;;;;;;;1.25;100.00;96953.59;5004265;28;20053;-61
2022/04/21 03:02:44;;;;;;;32.05;13.68;;;;;;;1.19;100.00;96960.31;5005475;28;20572;-62
2022/04/21 03:05:11;;;;;;;22.38;10.95;;;;;;;1.11;100.00;96946.63;5005360;28;20060;-64
2022/04/21 03:07:41;;;;;;;18.15;9.07;;;;;;;1.15;100.00;96929.34;5005176;28;20077;-64
2022/04/21 03:10:08;;;;;;;15.25;8.60;;;;;;;1.29;100.00;96953.78;5005183;28;20066;-60
2022/04/21 03:12:35;;;;;;;13.45;7.00;;;;;;;0.92;100.00;96914.13;5005901;28;20062;-64
2022/04/21 03:15:02;;;;;;;19.30;9.30;;;;;;;0.82;100.00;96898.00;5005516;28;20062;-58
2022/04/21 03:17:29;;;;;;;15.70;7.85;;;;;;;1.20;100.00;96981.00;5003615;28;20524;-60
2022/04/21 03:19:55;;;;;;;22.65;13.13;;;;;;;1.15;100.00;96986.63;5004775;28;20538;-60
2022/04/21 03:25:10;;;;;;;33.85;16.55;;;;;;;1.09;100.00;96979.66;5003779;28;20061;-60
2022/04/21 03:27:37;;;;;;;29.92;13.73;;;;;;;1.08;100.00;96969.88;5020073;28;20639;-60
2022/04/21 03:30:06;;;;;;;35.88;16.60;;;;;;;1.04;100.00;96974.31;5005687;28;20050;-64
2022/04/21 03:32:34;;;;;;;23.13;10.88;;;;;;;1.01;100.00;96979.63;5005248;28;20053;-60
2022/04/21 03:35:02;;;;;;;13.70;8.07;;;;;;;0.56;100.00;96931.66;5004315;28;20050;-63
2022/04/21 03:37:29;;;;;;;20.63;11.07;;;;;;;0.96;100.00;96980.56;4996699;28;20054;-59
2022/04/21 03:39:55;;;;;;;21.98;11.77;;;;;;;0.44;100.00;96875.00;4985045;28;20054;-65
2022/04/21 03:42:27;;;;;;;23.67;10.15;;;;;;;0.99;100.00;96979.94;4984886;28;20042;-60
2022/04/21 03:44:55;;;;;;;21.00;9.77;;;;;;;0.72;100.00;96903.72;4985287;28;20124;-59
2022/04/21 03:47:22;;;;;;;20.88;9.68;;;;;;;0.90;100.00;96932.69;4984931;28;20433;-64
2022/04/21 03:49:49;;;;;;;41.97;15.98;;;;;;;1.25;100.00;96978.16;4999869;28;20057;-65
2022/04/21 03:52:19;;;;;;;39.28;17.38;;;;;;;1.32;100.00;96978.53;4983290;28;20065;-61
2022/04/21 03:54:46;;;;;;;25.83;12.10;;;;;;;1.31;100.00;96985.09;4984843;28;20054;-64
2022/04/21 03:57:13;;;;;;;16.63;9.75;;;;;;;0.49;100.00;96846.84;4985561;28;20054;-68
2022/04/21 03:59:39;;;;;;;20.30;10.30;;;;;;;1.16;100.00;96947.31;4985091;28;20054;-60
2022/04/21 04:02:06;;;;;;;18.73;9.20;;;;;;;1.42;100.00;96955.63;4999589;28;20105;-60
2022/04/21 04:04:36;;;;;;;25.95;12.77;;;;;;;1.84;100.00;96974.09;4983253;28;20057;-65
2022/04/21 04:12:37;;;;;;;18.83;9.05;;;;;;;1.83;100.00;96972.50;4984457;28;20062;-65
2022/04/21 04:15:06;;;;;;;29.65;12.25;;;;;;;1.88;100.00;96957.91;4983220;28;20449;-60
2022/04/21 04:17:33;;;;;;;19.35;10.57;;;;;;;1.97;100.00;96966.91;4984465;28;20544;-60
2022/04/21 04:20:00;;;;;;;26.27;13.40;;;;;;;1.90;100.00;96944.72;4984470;28;20050;-65
2022/04/21 04:22:27;;;;;;;30.73;14.50;;;;;;;2.16;100.00;96959.25;4984406;28;20057;-63
2022/04/21 04:24:56;;;;;;;30.15;15.52;;;;;;;2.11;100.00;96930.16;4999143;28;20129;-60
2022/04/21 04:27:24;;;;;;;29.77;13.93;;;;;;;2.33;100.00;96960.06;4984702;28;20062;-61
2022/04/21 04:29:50;;;;;;;26.00;13.45;;;;;;;2.41;100.00;96966.66;4984228;28;20046;-65
2022/04/21 04:32:18;;;;;;;35.63;16.63;;;;;;;0.79;100.00;96707.81;4984614;28;20587;-64
2022/04/21 04:34:44;;;;;;;38.58;21.55;;;;;;;2.32;100.00;96944.00;4999570;28;20065;-59
2022/04/21 04:37:11;;;;;;;47.33;22.73;;;;;;;1.94;100.00;96918.38;4989655;28;20057;-60
2022/04/21 04:39:38;;;;;;;66.63;27.70;;;;;;;2.74;100.00;96965.06;5018764;28;20061;-64
2022/04/21 04:42:17;;;;;;;36.70;19.02;;;;;;;2.95;100.00;96960.56;5004398;28;20521;-64
2022/04/21 04:44:45;;;;;;;92.47;31.00;;;;;;;2.80;100.00;96958.31;5004220;28;20133;-60
2022/04/21 04:47:12;;;;;;;59.10;24.15;;;;;;;3.05;100.00;96960.25;5004789;28;20147;-62
2022/04/21 04:49:40;;;;;;;32.67;16.40;;;;;;;3.16;100.00;96967.00;4985154;28;20042;-70
2022/04/21 04:52:07;;;;;;;23.33;11.70;;;;;;;3.28;100.00;96983.53;4982907;28;20058;-61
2022/04/21 04:54:34;;;;;;;13.82;8.88;;;;;;;3.27;100.00;96984.69;4983067;28;20069;-70
2022/04/21 04:57:01;;;;;;;14.73;7.65;;;;;;;3.32;100.00;96981.75;4984605;28;20050;-60
2022/04/21 04:59:29;;;;;;;14.65;7.68;;;;;;;3.02;100.00;96917.91;4984715;28;20260;-71
2022/04/21 05:01:56;;;;;;;15.57;8.10;;;;;;;3.22;100.00;96921.09;4983858;28;20065;-62
2022/04/21 05:04:25;;;;;;;17.90;9.85;;;;;;;3.49;100.00;96943.41;4984101;28;20512;-61
2022/04/21 05:06:55;;;;;;;18.70;10.68;;;;;;;3.93;100.00;96959.31;4984372;28;20077;-70
2022/04/21 05:09:24;;;;;;;12.63;7.53;;;;;;;4.06;99.30;96952.78;4982682;28;20061;-69
2022/04/21 05:11:52;;;;;;;14.13;8.35;;;;;;;4.14;96.33;96940.97;4984413;28;20058;-69
2022/04/21 05:14:23;;;;;;;16.52;10.45;;;;;;;4.40;94.88;96952.59;4983601;28;20491;-61
2022/04/21 05:16:50;;;;;;;19.33;11.30;;;;;;;4.51;95.83;96973.00;4984036;28;20054;-60
2022/04/21 05:19:19;;;;;;;35.35;16.25;;;;;;;4.60;94.18;96961.97;4984093;28;20060;-69
2022/04/21 05:21:48;;;;;;;44.22;19.00;;;;;;;4.58;94.86;96962.28;4984373;28;20081;-59
2022/04/21 05:24:15;;;;;;;46.40;19.88;;;;;;;4.45;94.81;96949.66;4982928;28;20420;-60
2022/04/21 05:26:43;;;;;;;53.65;21.17;;;;;;;4.55;93.82;96967.66;4984102;28;20065;-70
2022/04/21 05:32:03;;;;;;;39.72;18.80;;;;;;;4.30;94.11;96925.56;4983638;28;20501;-60
2022/04/21 05:34:31;;;;;;;47.95;19.50;;;;;;;4.47;94.50;96963.81;4983735;28;20055;-61
2022/04/21 05:37:00;;;;;;;48.80;20.23;;;;;;;4.62;94.92;96965.19;4983773;28;20065;-69
2022/04/21 05:39:28;;;;;;;66.57;24.17;;;;;;;4.62;95.34;96957.75;4963102;28;20053;-69
2022/04/21 05:41:57;;;;;;;53.63;21.83;;;;;;;4.87;95.32;96933.19;4964376;28;20055;-69
2022/04/21 05:44:25;;;;;;;51.10;22.95;;;;;;;5.17;93.76;96954.69;4962758;28;20054;-69
2022/04/21 05:46:52;;;;;;;63.30;22.80;;;;;;;5.51;94.10;96956.28;4962865;28;20530;-61
2022/04/21 05:49:19;;;;;;;55.13;20.70;;;;;;;5.31;91.07;96905.00;4989471;28;20654;-63
2022/04/21 05:51:48;;;;;;;53.25;23.02;;;;;;;5.59;90.84;96890.28;4986806;28;20504;-58
2022/04/21 05:54:15;;;;;;;70.68;26.60;;;;;;;6.28;89.19;96945.16;4975666;28;20069;-58
2022/04/21 05:56:42;;;;;;;59.38;24.10;;;;;;;6.44;87.60;96931.50;4986668;28;20050;-63
2022/04/21 05:59:08;;;;;;;75.60;28.75;;;;;;;6.52;86.68;96928.63;4986171;28;20109;-61
2022/04/21 06:01:36;;;;;;;68.05;28.30;;;;;;;6.20;86.04;96893.84;4986536;28;20104;-58
2022/04/21 06:04:03;;;;;;;69.88;30.17;;;;;;;7.03;85.65;96925.06;4988374;28;20525;-67
2022/04/21 06:06:29;;;;;;;71.55;28.23;;;;;;;7.40;84.61;96951.28;4985904;28;20054;-68
2022/04/21 06:08:56;;;;;;;73.57;30.27;;;;;;;7.92;83.42;96953.81;5015471;28;20433;-64
2022/04/21 06:11:24;;;;;;;106.70;38.78;;;;;;;8.20;80.55;96948.22;4986299;28;20051;-63
2022/04/21 06:13:51;;;;;;;90.13;31.75;;;;;;;8.35;78.16;96955.72;4985586;28;20254;-71
2022/04/21 06:16:17;;;;;;;69.18;24.92;;;;;;;8.51;76.49;96948.22;4985497;28;20481;-59
2022/04/21 06:18:44;;;;;;;66.75;22.55;;;;;;;8.73;75.85;96961.34;4985229;28;20054;-66
2022/04/21 06:21:11;;;;;;;56.63;21.10;;;;;;;8.86;75.41;96962.81;4984879;28;20050;-57
2022/04/21 06:23:38;;;;;;;49.58;18.67;;;;;;;7.73;79.89;96918.69;4986038;28;20054;-67
2022/04/21 06:26:06;;;;;;;44.08;17.77;;;;;;;7.73;80.36;96949.00;4986195;28;20297;-58
2022/04/21 06:28:35;;;;;;;45.53;15.88;;;;;;;8.22;79.56;96956.97;4986132;28;20062;-62
2022/04/21 06:31:02;;;;;;;33.13;12.35;;;;;;;8.72;72.91;96962.50;4984379;28;20492;-62
2022/04/21 06:33:31;;;;;;;23.92;10.25;;;;;;;7.83;72.22;96862.22;4982317;28;20109;-63
2022/04/21 06:35:59;;;;;;;28.90;12.05;;;;;;;8.44;73.70;96915.72;4983069;28;20279;-66
2022/04/21 06:38:26;;;;;;;28.17;11.05;;;;;;;8.90;73.16;96944.34;4978743;28;20057;-66
2022/04/21 06:40:53;;;;;;;27.38;9.15;;;;;;;9.06;69.51;96909.19;4985898;28;20066;-60
2022/04/21 06:48:53;;;;;;;27.70;12.98;;;;;;;10.11;67.40;96915.94;4985225;28;20053;-70
2022/04/21 06:51:20;;;;;;;31.10;13.07;;;;;;;10.55;66.63;96936.41;4975472;28;21593;-59
2022/04/21 06:53:47;;;;;;;28.67;11.77;;;;;;;10.48;67.09;96870.63;4977021;28;20055;-61
2022/04/21 06:56:15;;;;;;;25.20;10.70;;;;;;;10.92;63.30;96906.06;4984379;28;20677;-63
2022/04/21 06:58:42;;;;;;;23.83;10.50;;;;;;;11.32;61.91;96936.66;4983219;28;20058;-60
2022/04/21 07:01:08;;;;;;;21.65;10.10;;;;;;;11.09;62.26;96855.59;4984812;28;20054;-67
2022/04/21 07:03:35;;;;;;;26.50;11.57;;;;;;;11.35;61.20;96924.84;4984827;28;20058;-61
2022/04/21 07:06:03;;;;;;;25.65;12.60;;;;;;;8.25;67.51;96619.66;4984645;28;20065;-64
2022/04/21 07:08:30;;;;;;;24.63;11.85;;;;;;;10.29;66.33;96912.25;4981580;28;20066;-57
2022/04/21 07:10:57;;;;;;;34.13;13.60;;;;;;;10.53;69.13;96917.38;4984595;28;20046;-69
2022/04/21 07:13:23;;;;;;;25.75;11.25;;;;;;;10.50;65.58;96804.59;4983956;28;20065;-69
2022/04/21 07:15:50;;;;;;;27.35;11.70;;;;;;;11.55;65.67;96918.75;4984565;28;20054;-60
2022/04/21 07:18:18;;;;;;;20.85;10.13;;;;;;;11.88;61.78;96920.69;4984186;28;20492;-65
2022/04/21 07:20:45;;;;;;;14.70;6.82;;;;;;;11.97;59.09;96880.34;4981579;28;20057;-57
2022/04/21 07:23:12;;;;;;;15.35;7.05;;;;;;;12.59;55.69;96928.44;4985057;28;20606;-63
2022/04/21 07:25:39;;;;;;;15.10;8.07;;;;;;;12.59;55.56;96872.06;4983583;28;20065;-57
2022/04/21 07:28:06;;;;;;;11.32;5.72;;;;;;;12.85;53.39;96914.31;4985191;28;20053;-68
2022/04/21 07:30:33;;;;;;;9.93;5.70;;;;;;;13.01;54.32;96906.50;4982881;28;20050;-70
2022/04/21 07:33:00;;;;;;;10.98;6.15;;;;;;;13.12;53.27;96912.91;4983117;28;20046;-66
2022/04/21 07:35:29;;;;;;;11.32;5.45;;;;;;;12.76;53.01;96894.41;4965476;28;20055;-57
2022/04/21 07:37:59;;;;;;;7.20;5.22;;;;;;;11.20;54.61;96598.69;4983134;28;20153;-60
2022/04/21 07:40:28;;;;;;;12.68;6.50;;;;;;;12.75;52.95;96915.06;4982807;28;20919;-61
2022/04/21 07:42:55;;;;;;;9.18;5.85;;;;;;;12.86;53.67;96882.56;4983339;28;20096;-64
2022/04/21 07:45:22;;;;;;;12.48;5.97;;;;;;;13.42;52.71;96891.19;4984848;28;20581;-57
2022/04/21 07:47:49;;;;;;;8.60;6.05;;;;;;;13.75;49.92;96906.00;4984749;28;20081;-62
2022/04/21 07:50:16;;;;;;;10.35;5.43;;;;;;;13.37;48.89;96902.69;4984359;28;20054;-63
2022/04/21 07:53:15;;;;;;;10.75;5.85;;;;;;;13.08;50.87;96862.06;4983508;28;20108;-65
2022/04/21 07:55:44;;;;;;;8.10;6.05;;;;;;;13.12;49.97;96912.91;4974749;28;20058;-58
2022/04/21 07:58:11;;;;;;;6.53;4.78;;;;;;;12.22;48.65;96849.97;4974060;28;20534;-60
2022/04/21 08:00:40;;;;;;;12.02;6.00;;;;;;;11.92;52.13;96910.41;4981418;28;20521;-60
2022/04/21 08:03:11;;;;;;;6.15;4.68;;;;;;;12.16;51.65;96909.84;4984191;28;20441;-62
2022/04/21 08:05:37;;;;;;;7.72;4.80;;;;;;;12.39;52.50;96907.66;4983745;28;20137;-59
2022/04/21 08:08:04;;;;;;;7.28;4.65;;;;;;;12.40;51.63;96909.25;4983287;28;20057;-60
2022/04/21 08:10:31;;;;;;;5.25;3.88;;;;;;;11.88;52.48;96873.50;4982370;28;20061;-61
2022/04/21 08:12:59;;;;;;;5.70;3.90;;;;;;;12.66;51.58;96914.59;4982962;28;20047;-57
2022/04/21 08:15:32;;;;;;;6.95;4.95;;;;;;;13.30;51.11;96919.38;4979196;28;20061;-59
2022/04/21 08:18:00;;;;;;;9.98;5.47;;;;;;;13.20;51.55;96930.41;4983813;28;20077;-61
2022/04/21 08:20:29;;;;;;;4.85;4.32;;;;;;;12.93;49.32;96804.75;4982093;28;20064;-58
2022/04/21 08:22:56;;;;;;;8.07;5.05;;;;;;;13.67;49.94;96913.53;4980290;28;20057;-60
2022/04/21 08:34:19;;;;;;;5.47;4.90;;;;;;;13.12;50.83;96850.94;4984197;28;20054;-63
2022/04/21 08:36:52;;;;;;;7.63;5.00;;;;;;;14.46;50.28;96930.75;4984483;28;20054;-59
2022/04/21 08:39:19;;;;;;;7.35;4.88;;;;;;;15.16;49.83;96929.88;4984277;28;20069;-63
2022/04/21 08:41:48;;;;;;;5.85;4.40;;;;;;;15.26;45.68;96934.66;4982118;28;20054;-66
2022/04/21 08:44:19;;;;;;;5.38;4.40;;;;;;;14.66;45.92;96833.59;4983827;28;20053;-62
2022/04/21 08:46:48;;;;;;;6.13;4.63;;;;;;;15.44;44.81;96934.63;4982990;28;20575;-60
2022/04/21 08:49:18;;;;;;;4.97;4.45;;;;;;;15.47;44.17;96923.44;4983315;28;20062;-58
2022/04/21 08:51:45;;;;;;;8.15;4.30;;;;;;;15.41;44.61;96919.47;4980922;28;20109;-58
2022/04/21 08:54:12;;;;;;;5.20;4.20;;;;;;;14.64;45.75;96863.84;4982999;28;20548;-56
2022/04/21 08:56:39;;;;;;;6.13;4.70;;;;;;;13.74;47.29;96921.13;4983628;28;20433;-58
2022/04/21 08:59:05;;;;;;;5.28;4.53;;;;;;;12.55;47.53;96644.22;4983052;28;20050;-65
2022/04/21 09:01:33;;;;;;;5.03;4.53;;;;;;;14.36;48.44;96925.19;4982533;28;20050;-69
2022/04/21 09:04:01;;;;;;;5.10;4.20;;;;;;;14.25;46.39;96824.09;4982433;28;20140;-60
2022/04/21 09:06:29;;;;;;;5.65;3.88;;;;;;;14.52;46.69;96922.81;4980184;28;20046;-61
2022/04/21 09:09:21;;;;;;;6.00;4.13;;;;;;;14.76;46.42;96922.00;4981668;28;20066;-62
2022/04/21 09:11:56;;;;;;;5.47;4.30;;;;;;;14.96;45.31;96923.16;4979404;28;20543;-56
2022/04/21 09:14:22;;;;;;;5.72;4.47;;;;;;;15.32;46.34;96929.47;4981085;28;20050;-64
2022/04/21 09:16:49;;;;;;;6.22;4.53;;;;;;;13.22;46.15;96606.22;4981501;28;20803;-58
2022/04/21 09:19:16;;;;;;;6.28;4.80;;;;;;;15.58;45.07;96920.59;4979065;28;20050;-58
2022/04/21 09:21:43;;;;;;;7.40;4.78;;;;;;;15.85;44.65;96916.88;4978415;28;20473;-66
2022/04/21 09:24:26;;;;;;;5.72;4.75;;;;;;;16.12;43.41;96919.91;4986725;28;20514;-57
2022/04/21 09:26:56;;;;;;;9.27;5.63;;;;;;;15.72;43.39;96868.28;4987787;28;20472;-61
2022/04/21 09:29:30;;;;;;;7.50;6.07;;;;;;;15.19;44.45;96850.94;4984766;28;20051;-57
2022/04/21 09:31:59;;;;;;;10.75;6.07;;;;;;;15.95;44.25;96910.41;4983562;28;20425;-64
2022/04/21 09:34:35;;;;;;;10.90;6.03;;;;;;;15.69;43.75;96868.28;4985248;28;20058;-65
2022/04/21 09:37:05;;;;;;;6.63;4.80;;;;;;;15.06;46.53;96905.63;4987598;28;20061;-65
2022/04/21 09:39:38;;;;;;;6.30;5.70;;;;;;;15.43;46.03;96905.91;4982022;28;20424;-63
2022/04/21 09:42:05;;;;;;;8.77;6.07;;;;;;;15.59;46.87;96909.03;4983935;28;20523;-63
2022/04/21 09:47:20;;;;;;;9.20;5.20;;;;;;;15.40;44.47;96822.97;4986553;28;20808;-56
2022/04/21 09:49:47;;;;;;;8.85;6.10;;;;;;;15.97;46.53;96893.25;4986852;28;20055;-64
2022/04/21 09:52:26;;;;;;;7.35;5.85;;;;;;;16.62;44.51;96890.38;4985714;28;20054;-57
2022/04/21 09:54:53;;;;;;;7.88;6.30;;;;;;;16.81;44.45;96919.75;4986525;28;20505;-64
2022/04/21 09:57:30;;;;;;;6.70;5.20;;;;;;;16.65;43.39;96842.00;4987535;28;20061;-64
2022/04/21 10:00:01;;;;;;;8.27;5.38;;;;;;;16.90;43.48;96887.28;4985350;28;20054;-64
2022/04/21 10:02:29;;;;;;;6.75;5.10;;;;;;;17.38;41.39;96873.16;4985614;28;20457;-65
2022/04/21 10:04:58;;;;;;;6.72;5.45;;;;;;;17.24;41.41;96836.94;4986539;28;20593;-64
2022/04/21 10:07:26;;;;;;;6.00;4.88;;;;;;;17.89;40.74;96864.50;4987280;28;20050;-56
2022/04/21 10:09:54;;;;;;;6.05;4.35;;;;;;;18.26;40.08;96861.53;4986707;28;20076;-65
2022/04/21 10:12:22;;;;;;;5.43;4.93;;;;;;;18.66;37.52;96856.88;4985649;28;20050;-56
2022/04/21 10:14:50;;;;;;;5.30;4.30;;;;;;;18.35;38.75;96867.41;4986639;28;20140;-64
2022/04/21 10:17:17;;;;;;;8.15;6.03;;;;;;;18.62;38.87;96856.94;4986925;28;20796;-55
2022/04/21 10:19:49;;;;;;;5.97;4.97;;;;;;;17.55;39.37;96844.16;4986892;28;20050;-56
2022/04/21 10:22:23;;;;;;;4.85;4.35;;;;;;;17.03;40.44;96851.19;4986935;28;20133;-62
2022/04/21 10:24:54;;;;;;;5.50;4.85;;;;;;;17.04;42.94;96847.97;4986562;28;20054;-55
2022/04/21 10:27:42;;;;;;;6.63;4.97;;;;;;;16.90;41.02;96766.22;4986416;28;20501;-56
2022/04/21 10:30:20;;;;;;;6.32;5.00;;;;;;;17.63;40.94;96845.66;4986503;28;20080;-56
2022/04/21 10:33:04;;;;;;;7.45;4.63;;;;;;;17.89;40.01;96847.69;4986658;28;20085;-64
2022/04/21 10:35:37;;;;;;;5.73;4.97;;;;;;;17.82;39.90;96845.78;4984490;28;20464;-64
2022/04/21 10:38:13;;;;;;;;;;;;;;;17.84;39.63;96845.38;4986947;28;20058;-63
2022/04/21 10:41:03;;;;;;;9.07;5.70;;;;;;;18.18;40.35;96832.00;4981634;28;20028;-65
2022/04/21 10:43:50;;;;;;;5.43;4.82;;;;;;;18.43;38.33;96832.41;4966007;28;20055;-65
2022/04/21 10:46:19;;;;;;;5.07;4.68;;;;;;;18.39;38.53;96833.69;4956570;28;20055;-56
2022/04/21 10:48:46;;;;;;;6.05;4.78;;;;;;;18.38;38.40;96818.91;4966791;28;20478;-66
2022/04/21 10:51:27;;;;;;;6.38;4.95;;;;;;;18.86;37.05;96833.25;4966985;28;20054;-65
2022/04/21 11:00:05;;;;;;;4.90;4.50;;;;;;;18.16;37.28;96828.06;4966502;28;20055;-56
2022/04/21 11:02:43;;;;;;;5.25;4.82;;;;;;;19.05;36.58;96817.66;4966830;28;20050;-65
2022/04/21 11:05:22;;;;;;;4.72;4.32;;;;;;;19.45;35.52;96820.06;4966580;28;20141;-65
2022/04/21 11:07:54;;;;;;;6.28;4.85;;;;;;;17.67;38.42;96824.00;4966089;28;20055;-55
2022/04/21 11:10:36;;;;;;;6.32;5.30;;;;;;;17.10;40.77;96818.31;4966024;28;20058;-64
2022/04/21 11:13:04;;;;;;;4.88;4.32;;;;;;;18.08;38.79;96818.97;4965888;28;20497;-56
2022/04/21 11:15:32;;;;;;;3.78;3.47;;;;;;;18.78;37.71;96817.75;4965821;28;20547;-64
2022/04/21 11:18:05;;;;;;;4.38;3.97;;;;;;;18.05;37.27;96817.03;4966535;28;20051;-64
2022/04/21 11:20:32;;;;;;;6.13;4.47;;;;;;;18.21;37.33;96817.13;4966363;28;20066;-58
2022/04/21 11:22:59;;;;;;;4.60;4.20;;;;;;;17.90;37.86;96770.81;4966775;28;20437;-64
2022/04/21 11:25:30;;;;;;;5.32;4.05;;;;;;;18.15;38.28;96725.56;4966164;28;20051;-56
2022/04/21 11:27:57;;;;;;;5.20;4.70;;;;;;;18.75;37.17;96770.13;4966235;28;20046;-64
2022/04/21 11:30:25;;;;;;;4.65;4.25;;;;;;;18.42;36.02;96724.25;4966452;28;20114;-63
2022/04/21 11:32:52;;;;;;;4.38;4.07;;;;;;;18.56;36.03;96808.16;4964419;28;20055;-58
2022/04/21 11:35:22;;;;;;;4.78;3.58;;;;;;;18.54;36.87;96804.97;4965845;28;20134;-64
2022/04/21 11:37:50;;;;;;;4.22;3.60;;;;;;;18.66;33.66;96809.97;4966129;28;20085;-64
2022/04/21 11:40:18;;;;;;;3.80;3.50;;;;;;;18.67;34.33;96799.56;4999076;28;20064;-62
2022/04/21 11:42:46;;;;;;;3.58;3.30;;;;;;;18.77;32.76;96798.53;4978006;28;20053;-58
2022/04/21 11:45:18;;;;;;;3.58;3.00;;;;;;;18.93;33.17;96821.91;5004852;28;20061;-64
2022/04/21 11:47:44;;;;;;;3.15;2.95;;;;;;;18.59;34.30;96790.47;5004609;28;20513;-64
2022/04/21 11:50:13;;;;;;;3.58;3.30;;;;;;;18.72;35.17;96794.22;5004592;28;20081;-64
2022/04/21 11:52:47;;;;;;;3.17;2.97;;;;;;;18.56;33.41;96673.50;5004578;28;20054;-64
2022/04/21 11:55:16;;;;;;;3.30;3.10;;;;;;;19.14;33.57;96773.72;5019328;28;20058;-63
2022/04/21 11:57:44;;;;;;;3.55;3.30;;;;;;;18.77;33.64;96774.09;5004255;28;20202;-57
2022/04/21 12:00:12;;;;;;;3.38;3.17;;;;;;;18.38;34.17;96768.41;5004400;28;20508;-65
2022/04/21 12:08:12;;;;;;;3.47;3.17;;;;;;;18.10;35.16;96757.66;5004297;28;20062;-56
2022/04/21 12:10:41;;;;;;;3.90;3.60;;;;;;;17.93;35.32;96764.34;5004277;28;20050;-55
2022/04/21 12:13:08;;;;;;;7.30;6.15;;;;;;;17.35;34.49;96672.41;5004361;28;20045;-57
2022/04/21 12:15:37;;;;;;;6.13;3.80;;;;;;;17.72;34.99;96720.66;5003934;28;20053;-64
2022/04/21 12:18:05;;;;;;;3.67;3.38;;;;;;;17.77;35.24;96719.38;5004244;28;20455;-55
2022/04/21 12:20:31;;;;;;;3.58;3.22;;;;;;;17.98;36.37;96755.47;5004071;28;20052;-65
2022/04/21 12:22:58;;;;;;;3.40;3.10;;;;;;;17.94;36.20;96754.75;5004043;28;20115;-63
2022/04/21 12:25:30;;;;;;;3.78;3.45;;;;;;;15.96;36.00;96431.50;5004101;28;20057;-56